createdAt,value
2023-10-20T00:00:22.929Z,45.13
2023-10-20T00:01:22.930Z,54.84
2023-10-20T00:02:22.982Z,42.52
2023-10-20T00:03:22.978Z,44.15
2023-10-20T00:04:22.924Z,41.49
2023-10-20T00:05:22.948Z,43.07
2023-10-20T00:06:22.879Z,55.69
2023-10-20T00:07:22.872Z,49.21
2023-10-20T00:08:22.919Z,45.75
2023-10-20T00:09:22.890Z,46.90
2023-10-20T00:10:22.846Z,47.78
2023-10-20T00:11:22.859Z,43.33
2023-10-20T00:12:23.851Z,47.42
2023-10-20T00:13:22.858Z,54.74
2023-10-20T00:14:22.868Z,50.25
2023-10-20T00:15:22.822Z,46.19
2023-10-20T00:16:22.823Z,46.61
2023-10-20T00:17:22.896Z,46.56
2023-10-20T00:18:22.872Z,43.83
2023-10-20T00:19:22.778Z,55.53
2023-10-20T00:20:22.794Z,43.59
2023-10-20T00:21:22.759Z,44.13
2023-10-20T00:22:22.770Z,45.01
2023-10-20T00:23:22.827Z,42.52
2023-10-20T00:24:22.750Z,45.35
2023-10-20T00:25:22.736Z,44.52
2023-10-20T00:26:22.742Z,55.49
2023-10-20T00:27:22.759Z,52.34
2023-10-20T00:28:22.734Z,43.96
2023-10-20T00:29:22.716Z,43.57
2023-10-20T00:30:22.704Z,47.69
2023-10-20T00:31:22.730Z,47.47
2023-10-20T00:32:22.702Z,52.04
2023-10-20T00:33:22.701Z,49.63
2023-10-20T00:34:22.677Z,45.96
2023-10-20T00:35:22.678Z,42.73
2023-10-20T00:36:22.649Z,46.45
2023-10-20T00:37:22.671Z,42.48
2023-10-20T00:38:22.660Z,44.57
2023-10-20T00:39:22.626Z,47.83
2023-10-20T00:40:22.620Z,46.37
2023-10-20T00:41:22.658Z,42.65
2023-10-20T00:42:22.676Z,50.44
2023-10-20T00:43:22.598Z,45.68
2023-10-20T00:44:22.633Z,43.80
2023-10-20T00:45:22.582Z,46.23
2023-10-20T00:46:22.599Z,59.12
2023-10-20T00:47:22.643Z,46.93
2023-10-20T00:48:22.670Z,42.28
2023-10-20T00:49:22.554Z,44.20
2023-10-20T00:50:22.556Z,43.40
2023-10-20T00:51:22.558Z,42.60
2023-10-20T00:52:22.526Z,56.58
2023-10-20T00:53:22.584Z,44.32
2023-10-20T00:54:22.511Z,44.24
2023-10-20T00:55:22.542Z,46.74
2023-10-20T00:56:22.566Z,51.77
2023-10-20T00:57:22.517Z,42.60
2023-10-20T00:58:22.467Z,45.99
2023-10-20T00:59:23.489Z,45.38
2023-10-20T01:00:22.496Z,41.77
2023-10-20T01:01:22.582Z,42.98
2023-10-20T01:02:22.568Z,44.38
2023-10-20T01:03:22.549Z,43.44
2023-10-20T01:04:22.440Z,43.56
2023-10-20T01:05:22.561Z,48.26
2023-10-20T01:06:22.427Z,42.90
2023-10-20T01:07:22.413Z,50.56
2023-10-20T01:08:22.441Z,55.90
2023-10-20T01:09:22.460Z,43.89
2023-10-20T01:10:22.415Z,42.95
2023-10-20T01:11:22.418Z,44.21
2023-10-20T01:12:22.374Z,42.79
2023-10-20T01:13:22.361Z,46.24
2023-10-20T01:14:22.402Z,42.98
2023-10-20T01:15:22.398Z,41.53
2023-10-20T01:16:22.400Z,48.28
2023-10-20T01:17:22.383Z,43.00
2023-10-20T01:18:22.388Z,50.94
2023-10-20T01:19:22.342Z,42.11
2023-10-20T01:20:22.340Z,43.52
2023-10-20T01:21:22.302Z,43.76
2023-10-20T01:22:22.287Z,52.01
2023-10-20T01:23:22.328Z,51.05
2023-10-20T01:24:22.305Z,42.41
2023-10-20T01:25:22.265Z,44.18
2023-10-20T01:26:22.381Z,42.10
2023-10-20T01:27:22.253Z,46.49
2023-10-20T01:28:22.270Z,49.57
2023-10-20T01:29:22.292Z,47.35
2023-10-20T01:30:22.245Z,45.87
2023-10-20T01:31:22.215Z,43.68
2023-10-20T01:32:22.268Z,48.46
2023-10-20T01:33:22.273Z,46.01
2023-10-20T01:34:22.228Z,45.88
2023-10-20T01:35:23.212Z,56.83
2023-10-20T01:36:22.176Z,48.36
2023-10-20T01:37:22.164Z,48.98
2023-10-20T01:38:22.221Z,45.73
2023-10-20T01:39:22.154Z,49.41
2023-10-20T01:40:22.147Z,55.57
2023-10-20T01:41:22.194Z,49.28
2023-10-20T01:42:22.234Z,46.17
2023-10-20T01:43:22.160Z,46.89
2023-10-20T01:44:22.135Z,47.02
2023-10-20T01:45:23.123Z,59.74
2023-10-20T01:46:22.112Z,47.74
2023-10-20T01:47:22.144Z,43.72
2023-10-20T01:48:22.146Z,43.28
2023-10-20T01:49:22.074Z,43.53
2023-10-20T01:50:22.118Z,48.80
2023-10-20T01:51:22.060Z,51.67
2023-10-20T01:52:23.080Z,48.11
2023-10-20T01:53:22.079Z,45.92
2023-10-20T01:54:22.050Z,46.40
2023-10-20T01:55:22.052Z,48.66
2023-10-20T01:56:22.054Z,46.34
2023-10-20T01:57:22.057Z,51.90
2023-10-20T01:58:22.020Z,52.71
2023-10-20T01:59:22.058Z,49.99
2023-10-20T02:00:22.001Z,52.79
2023-10-20T02:01:22.031Z,47.51
2023-10-20T02:02:22.046Z,58.74
2023-10-20T02:03:22.072Z,49.15
2023-10-20T02:04:21.973Z,50.35
2023-10-20T02:05:21.984Z,44.57
2023-10-20T02:06:21.983Z,44.91
2023-10-20T02:07:21.938Z,43.95
2023-10-20T02:08:21.957Z,47.92
2023-10-20T02:09:21.939Z,53.50
2023-10-20T02:10:21.921Z,47.88
2023-10-20T02:11:22.005Z,44.22
2023-10-20T02:12:21.900Z,53.11
2023-10-20T02:13:21.897Z,48.17
2023-10-20T02:14:21.968Z,46.97
2023-10-20T02:15:21.908Z,43.02
2023-10-20T02:16:21.952Z,56.41
2023-10-20T02:17:21.870Z,45.51
2023-10-20T02:18:21.951Z,48.03
2023-10-20T02:19:21.841Z,45.05
2023-10-20T02:20:21.905Z,46.14
2023-10-20T02:21:21.831Z,47.99
2023-10-20T02:22:21.823Z,45.57
2023-10-20T02:23:21.848Z,45.56
2023-10-20T02:24:21.807Z,45.96
2023-10-20T02:25:21.828Z,43.70
2023-10-20T02:26:21.829Z,43.89
2023-10-20T02:27:21.795Z,51.12
2023-10-20T02:28:21.777Z,60.44
2023-10-20T02:29:21.784Z,46.58
2023-10-20T02:30:21.792Z,50.59
2023-10-20T02:31:21.787Z,43.23
2023-10-20T02:32:21.785Z,44.37
2023-10-20T02:33:21.773Z,47.82
2023-10-20T02:34:21.757Z,58.33
2023-10-20T02:35:21.856Z,52.63
2023-10-20T02:36:21.741Z,45.43
2023-10-20T02:37:21.727Z,49.95
2023-10-20T02:38:21.762Z,44.17
2023-10-20T02:39:21.731Z,45.24
2023-10-20T02:40:21.696Z,48.13
2023-10-20T02:41:21.741Z,53.00
2023-10-20T02:42:21.677Z,46.18
2023-10-20T02:43:21.660Z,43.55
2023-10-20T02:44:21.721Z,45.26
2023-10-20T02:45:21.657Z,47.23
2023-10-20T02:46:21.653Z,50.16
2023-10-20T02:47:21.669Z,57.01
2023-10-20T02:48:21.714Z,45.24
2023-10-20T02:49:21.646Z,48.50
2023-10-20T02:50:21.776Z,47.86
2023-10-20T02:51:21.611Z,48.60
2023-10-20T02:52:21.597Z,44.03
2023-10-20T02:53:21.669Z,48.42
2023-10-20T02:54:21.585Z,47.00
2023-10-20T02:55:21.577Z,50.44
2023-10-20T02:56:21.603Z,46.67
2023-10-20T02:57:21.554Z,46.58
2023-10-20T02:58:22.576Z,50.43
2023-10-20T02:59:21.585Z,47.72
2023-10-20T03:00:21.530Z,45.74
2023-10-20T03:01:21.550Z,47.31
2023-10-20T03:02:21.752Z,45.86
2023-10-20T03:03:21.768Z,51.73
2023-10-20T03:04:21.688Z,57.13
2023-10-20T03:05:21.534Z,44.47
2023-10-20T03:06:21.484Z,53.38
2023-10-20T03:07:21.536Z,46.91
2023-10-20T03:08:21.535Z,51.44
2023-10-20T03:09:21.464Z,63.97
2023-10-20T03:10:21.457Z,53.74
2023-10-20T03:11:21.487Z,53.45
2023-10-20T03:12:21.465Z,59.64
2023-10-20T03:13:21.435Z,48.59
2023-10-20T03:14:21.495Z,50.23
2023-10-20T03:15:21.425Z,50.00
2023-10-20T03:16:21.440Z,58.61
2023-10-20T03:17:21.449Z,53.06
2023-10-20T03:18:21.453Z,48.26
2023-10-20T03:19:21.403Z,51.36
2023-10-20T03:20:21.414Z,63.99
2023-10-20T03:21:21.424Z,49.27
2023-10-20T03:22:21.369Z,57.12
2023-10-20T03:23:21.403Z,50.46
2023-10-20T03:24:21.342Z,48.34
2023-10-20T03:25:21.344Z,48.25
2023-10-20T03:26:21.440Z,59.86
2023-10-20T03:27:21.419Z,49.29
2023-10-20T03:28:21.317Z,47.83
2023-10-20T03:29:21.316Z,55.27
2023-10-20T03:30:21.312Z,59.23
2023-10-20T03:31:21.350Z,50.74
2023-10-20T03:32:21.298Z,56.92
2023-10-20T03:33:21.324Z,50.99
2023-10-20T03:34:21.264Z,46.22
2023-10-20T03:35:21.306Z,55.58
2023-10-20T03:36:21.277Z,52.80
2023-10-20T03:37:21.247Z,49.34
2023-10-20T03:38:21.249Z,49.52
2023-10-20T03:39:21.292Z,59.22
2023-10-20T03:40:21.250Z,56.72
2023-10-20T03:41:21.276Z,51.65
2023-10-20T03:42:21.206Z,53.13
2023-10-20T03:43:21.217Z,60.94
2023-10-20T03:44:21.238Z,57.53
2023-10-20T03:45:21.208Z,48.40
2023-10-20T03:46:21.234Z,53.30
2023-10-20T03:47:21.205Z,52.75
2023-10-20T03:48:21.170Z,54.19
2023-10-20T03:49:21.153Z,53.18
2023-10-20T03:50:21.188Z,53.28
2023-10-20T03:51:21.127Z,49.57
2023-10-20T03:52:21.126Z,57.17
2023-10-20T03:53:22.596Z,51.98
2023-10-20T03:54:22.143Z,47.29
2023-10-20T03:55:21.131Z,52.64
2023-10-20T03:56:21.110Z,52.50
2023-10-20T03:57:21.077Z,50.76
2023-10-20T03:58:21.080Z,57.43
2023-10-20T03:59:21.153Z,57.57
2023-10-20T04:00:21.085Z,51.76
2023-10-20T04:01:21.066Z,61.00
2023-10-20T04:02:21.077Z,53.03
2023-10-20T04:03:21.061Z,57.20
2023-10-20T04:04:21.179Z,53.76
2023-10-20T04:05:21.088Z,56.88
2023-10-20T04:06:21.012Z,53.34
2023-10-20T04:07:21.013Z,52.57
2023-10-20T04:08:21.056Z,51.96
2023-10-20T04:09:21.011Z,57.08
2023-10-20T04:10:21.085Z,53.41
2023-10-20T04:11:22.746Z,60.81
2023-10-20T04:12:20.965Z,59.08
2023-10-20T04:13:20.994Z,57.99
2023-10-20T04:14:20.979Z,52.90
2023-10-20T04:15:21.032Z,54.26
2023-10-20T04:16:20.952Z,62.35
2023-10-20T04:17:20.993Z,54.82
2023-10-20T04:18:20.980Z,58.10
2023-10-20T04:19:20.905Z,52.79
2023-10-20T04:20:20.972Z,56.61
2023-10-20T04:21:20.900Z,58.17
2023-10-20T04:22:20.923Z,56.15
2023-10-20T04:23:20.950Z,56.72
2023-10-20T04:24:20.874Z,52.61
2023-10-20T04:25:20.881Z,60.46
2023-10-20T04:26:20.909Z,61.75
2023-10-20T04:27:20.876Z,53.52
2023-10-20T04:28:20.844Z,54.38
2023-10-20T04:29:20.885Z,51.75
2023-10-20T04:30:20.817Z,61.50
2023-10-20T04:31:21.825Z,58.75
2023-10-20T04:32:21.524Z,54.32
2023-10-20T04:33:20.861Z,52.40
2023-10-20T04:34:20.798Z,57.19
2023-10-20T04:35:20.794Z,58.04
2023-10-20T04:36:20.776Z,59.87
2023-10-20T04:37:20.796Z,54.74
2023-10-20T04:38:20.771Z,57.00
2023-10-20T04:39:20.745Z,62.21
2023-10-20T04:40:20.784Z,55.54
2023-10-20T04:41:20.757Z,55.88
2023-10-20T04:42:20.753Z,57.37
2023-10-20T04:43:20.749Z,54.72
2023-10-20T04:44:20.727Z,65.43
2023-10-20T04:45:20.755Z,56.55
2023-10-20T04:46:20.771Z,61.36
2023-10-20T04:47:20.786Z,56.06
2023-10-20T04:48:20.714Z,52.19
2023-10-20T04:49:20.668Z,54.61
2023-10-20T04:50:20.691Z,58.64
2023-10-20T04:51:20.676Z,55.48
2023-10-20T04:52:20.665Z,56.95
2023-10-20T04:53:20.657Z,54.06
2023-10-20T04:54:20.627Z,57.07
2023-10-20T04:55:54.553Z,59.54
2023-10-20T04:56:20.657Z,52.75
2023-10-20T04:57:20.642Z,53.48
2023-10-20T04:58:20.608Z,50.58
2023-10-20T04:59:20.620Z,54.73
2023-10-20T05:00:20.605Z,61.94
2023-10-20T05:01:21.634Z,54.36
2023-10-20T05:02:20.604Z,52.99
2023-10-20T05:03:20.641Z,54.96
2023-10-20T05:04:20.594Z,65.62
2023-10-20T05:05:20.628Z,57.33
2023-10-20T05:06:20.540Z,54.82
2023-10-20T05:07:20.518Z,54.20
2023-10-20T05:08:20.549Z,61.43
2023-10-20T05:09:20.516Z,51.29
2023-10-20T05:10:20.551Z,58.70
2023-10-20T05:11:20.535Z,56.89
2023-10-20T05:12:20.497Z,51.73
2023-10-20T05:13:20.492Z,52.60
2023-10-20T05:14:20.528Z,56.51
2023-10-20T05:15:20.511Z,53.92
2023-10-20T05:16:20.514Z,53.26
2023-10-20T05:17:20.616Z,61.63
2023-10-20T05:18:20.476Z,52.77
2023-10-20T05:19:20.479Z,56.14
2023-10-20T05:20:20.535Z,57.78
2023-10-20T05:21:20.473Z,55.66
2023-10-20T05:22:20.448Z,59.27
2023-10-20T05:23:20.417Z,60.79
2023-10-20T05:24:20.417Z,52.12
2023-10-20T05:25:20.438Z,56.46
2023-10-20T05:26:20.414Z,55.35
2023-10-20T05:27:20.377Z,62.11
2023-10-20T05:28:20.362Z,56.24
2023-10-20T05:29:20.433Z,51.33
2023-10-20T05:30:20.370Z,57.46
2023-10-20T05:31:20.400Z,63.81
2023-10-20T05:32:20.362Z,55.86
2023-10-20T05:33:20.369Z,56.23
2023-10-20T05:34:20.330Z,52.61
2023-10-20T05:35:20.360Z,54.89
2023-10-20T05:36:20.303Z,61.50
2023-10-20T05:37:20.293Z,64.13
2023-10-20T05:38:20.376Z,55.85
2023-10-20T05:39:20.280Z,60.45
2023-10-20T05:40:20.277Z,53.69
2023-10-20T05:41:20.338Z,57.70
2023-10-20T05:42:20.331Z,60.19
2023-10-20T05:43:20.280Z,56.66
2023-10-20T05:44:20.369Z,60.24
2023-10-20T05:45:20.266Z,54.21
2023-10-20T05:46:20.270Z,57.95
2023-10-20T05:47:20.273Z,58.16
2023-10-20T05:48:20.395Z,56.21
2023-10-20T05:49:20.367Z,51.90
2023-10-20T05:50:20.244Z,52.08
2023-10-20T05:51:20.244Z,58.83
2023-10-20T05:52:20.254Z,55.88
2023-10-20T05:53:20.183Z,56.76
2023-10-20T05:54:20.201Z,55.09
2023-10-20T05:55:20.176Z,52.19
2023-10-20T05:56:20.186Z,60.51
2023-10-20T05:57:20.247Z,57.56
2023-10-20T05:58:20.190Z,63.89
2023-10-20T05:59:20.238Z,59.91
2023-10-20T06:00:20.157Z,63.66
2023-10-20T06:01:20.207Z,50.80
2023-10-20T06:02:20.214Z,64.84
2023-10-20T06:03:20.185Z,56.80
2023-10-20T06:04:20.173Z,59.73
2023-10-20T06:05:20.166Z,55.60
2023-10-20T06:06:20.114Z,58.28
2023-10-20T06:07:20.140Z,60.52
2023-10-20T06:08:20.144Z,56.14
2023-10-20T06:09:20.144Z,55.79
2023-10-20T06:10:20.108Z,60.05
2023-10-20T06:11:20.301Z,61.56
2023-10-20T06:12:20.047Z,60.94
2023-10-20T06:13:20.029Z,57.91
2023-10-20T06:14:20.111Z,59.59
2023-10-20T06:15:20.066Z,59.19
2023-10-20T06:16:20.082Z,60.33
2023-10-20T06:17:20.075Z,56.83
2023-10-20T06:18:32.900Z,57.03
2023-10-20T06:19:21.989Z,55.90
2023-10-20T06:20:20.100Z,59.43
2023-10-20T06:21:20.148Z,61.00
2023-10-20T06:22:19.981Z,56.85
2023-10-20T06:23:20.234Z,62.55
2023-10-20T06:24:19.970Z,62.81
2023-10-20T06:25:20.099Z,58.36
2023-10-20T06:26:20.028Z,56.58
2023-10-20T06:27:20.021Z,59.78
2023-10-20T06:28:20.000Z,54.07
2023-10-20T06:29:19.961Z,57.83
2023-10-20T06:30:19.930Z,56.04
2023-10-20T06:31:19.943Z,58.38
2023-10-20T06:32:19.900Z,54.39
2023-10-20T06:33:21.012Z,57.66
2023-10-20T06:34:19.902Z,55.71
2023-10-20T06:35:19.997Z,55.90
2023-10-20T06:36:19.863Z,60.98
2023-10-20T06:37:19.871Z,54.08
2023-10-20T06:38:19.892Z,60.39
2023-10-20T06:39:20.447Z,54.28
2023-10-20T06:40:19.848Z,58.80
2023-10-20T06:41:19.925Z,54.09
2023-10-20T06:42:21.755Z,57.80
2023-10-20T06:43:19.825Z,58.37
2023-10-20T06:44:19.866Z,59.25
2023-10-20T06:45:19.837Z,59.03
2023-10-20T06:46:19.802Z,54.95
2023-10-20T06:47:19.807Z,57.50
2023-10-20T06:48:19.819Z,58.28
2023-10-20T06:49:20.307Z,60.23
2023-10-20T06:50:19.794Z,56.69
2023-10-20T06:51:19.722Z,50.88
2023-10-20T06:52:19.737Z,55.37
2023-10-20T06:53:19.771Z,62.63
2023-10-20T06:54:19.715Z,55.09
2023-10-20T06:55:44.890Z,51.26
2023-10-20T06:56:25.856Z,58.82
2023-10-20T06:57:21.710Z,56.42
2023-10-20T06:58:19.740Z,53.19
2023-10-20T06:59:19.680Z,53.62
2023-10-20T07:00:19.717Z,56.56
2023-10-20T07:01:19.776Z,53.40
2023-10-20T07:02:19.720Z,52.16
2023-10-20T07:03:19.787Z,58.87
2023-10-20T07:04:19.692Z,61.71
2023-10-20T07:05:19.714Z,60.60
2023-10-20T07:06:19.622Z,54.30
2023-10-20T07:07:19.630Z,59.74
2023-10-20T07:08:19.639Z,56.74
2023-10-20T07:09:19.652Z,58.84
2023-10-20T07:10:19.638Z,56.40
2023-10-20T07:11:19.612Z,54.55
2023-10-20T07:12:19.627Z,55.31
2023-10-20T07:13:19.600Z,53.76
2023-10-20T07:14:19.570Z,58.88
2023-10-20T07:15:19.595Z,59.15
2023-10-20T07:16:19.630Z,56.09
2023-10-20T07:17:19.564Z,54.90
2023-10-20T07:18:19.621Z,57.15
2023-10-20T07:19:19.536Z,60.17
2023-10-20T07:20:19.589Z,57.59
2023-10-20T07:21:19.560Z,48.74
2023-10-20T07:22:19.510Z,54.27
2023-10-20T07:23:19.547Z,57.61
2023-10-20T07:24:19.490Z,62.66
2023-10-20T07:25:19.477Z,55.83
2023-10-20T07:26:19.729Z,57.28
2023-10-20T07:27:19.454Z,54.07
2023-10-20T07:28:19.507Z,59.39
2023-10-20T07:29:19.526Z,57.78
2023-10-20T07:30:19.496Z,57.04
2023-10-20T07:31:19.493Z,59.18
2023-10-20T07:32:19.460Z,58.47
2023-10-20T07:33:19.511Z,60.92
2023-10-20T07:34:19.442Z,61.66
2023-10-20T07:35:19.452Z,55.59
2023-10-20T07:36:19.418Z,57.41
2023-10-20T07:37:19.396Z,60.48
2023-10-20T07:38:19.417Z,59.48
2023-10-20T07:39:19.353Z,59.78
2023-10-20T07:40:19.372Z,54.79
2023-10-20T07:41:19.448Z,54.29
2023-10-20T07:42:19.331Z,60.19
2023-10-20T07:43:19.331Z,55.89
2023-10-20T07:44:19.487Z,56.29
2023-10-20T07:45:19.335Z,56.15
2023-10-20T07:46:19.313Z,59.88
2023-10-20T07:47:19.378Z,57.53
2023-10-20T07:48:19.397Z,54.53
2023-10-20T07:49:19.347Z,56.87
2023-10-20T07:50:19.370Z,59.55
2023-10-20T07:51:19.276Z,60.81
2023-10-20T07:52:19.249Z,60.25
2023-10-20T07:53:19.253Z,57.00
2023-10-20T07:54:19.266Z,57.53
2023-10-20T07:55:19.241Z,53.08
2023-10-20T07:56:19.229Z,58.11
2023-10-20T07:57:19.212Z,62.60
2023-10-20T07:58:19.207Z,62.53
2023-10-20T07:59:19.270Z,59.14
2023-10-20T08:00:19.191Z,58.68
2023-10-20T08:01:19.219Z,56.46
2023-10-20T08:02:19.238Z,61.14
2023-10-20T08:03:19.476Z,59.61
2023-10-20T08:04:19.382Z,57.50
2023-10-20T08:05:19.614Z,57.99
2023-10-20T08:06:19.492Z,57.14
2023-10-20T08:07:19.256Z,60.10
2023-10-20T08:08:19.207Z,61.67
2023-10-20T08:09:19.148Z,61.90
2023-10-20T08:10:19.130Z,61.09
2023-10-20T08:11:19.122Z,59.93
2023-10-20T08:12:19.099Z,61.79
2023-10-20T08:13:19.120Z,64.26
2023-10-20T08:14:19.098Z,58.44
2023-10-20T08:15:19.098Z,57.96
2023-10-20T08:16:19.128Z,58.71
2023-10-20T08:17:19.118Z,60.42
2023-10-20T08:18:19.115Z,60.98
2023-10-20T08:19:19.060Z,60.57
2023-10-20T08:20:19.047Z,64.78
2023-10-20T08:21:19.038Z,62.60
2023-10-20T08:22:19.017Z,64.71
2023-10-20T08:23:19.089Z,59.48
2023-10-20T08:24:19.003Z,61.21
2023-10-20T08:25:19.001Z,58.02
2023-10-20T08:26:19.045Z,56.77
2023-10-20T08:27:19.023Z,59.38
2023-10-20T08:28:19.005Z,61.44
2023-10-20T08:29:18.996Z,62.29
2023-10-20T08:30:18.995Z,59.65
2023-10-20T08:31:19.078Z,59.32
2023-10-20T08:32:19.013Z,57.23
2023-10-20T08:33:18.976Z,63.03
2023-10-20T08:34:18.928Z,60.84
2023-10-20T08:35:18.955Z,61.76
2023-10-20T08:36:18.950Z,59.29
2023-10-20T08:37:18.953Z,57.77
2023-10-20T08:38:18.920Z,59.11
2023-10-20T08:39:18.886Z,62.09
2023-10-20T08:40:18.893Z,59.61
2023-10-20T08:41:18.976Z,58.42
2023-10-20T08:42:18.901Z,63.36
2023-10-20T08:43:18.862Z,58.25
2023-10-20T08:44:18.878Z,61.40
2023-10-20T08:45:18.894Z,62.61
2023-10-20T08:46:19.082Z,56.77
2023-10-20T08:47:18.863Z,59.98
2023-10-20T08:48:18.973Z,59.52
2023-10-20T08:49:18.821Z,61.15
2023-10-20T08:50:18.857Z,62.27
2023-10-20T08:51:18.835Z,60.41
2023-10-20T08:52:18.805Z,55.06
2023-10-20T08:53:20.404Z,53.41
2023-10-20T08:54:20.930Z,62.72
2023-10-20T08:55:22.494Z,61.81
2023-10-20T08:56:18.883Z,57.32
2023-10-20T08:57:18.765Z,59.53
2023-10-20T08:58:18.763Z,64.09
2023-10-20T08:59:18.779Z,61.91
2023-10-20T09:00:18.802Z,61.10
2023-10-20T09:01:18.820Z,58.54
2023-10-20T09:02:18.764Z,57.80
2023-10-20T09:03:18.820Z,62.04
2023-10-20T09:04:18.795Z,61.28
2023-10-20T09:05:18.811Z,62.11
2023-10-20T09:06:18.763Z,58.77
2023-10-20T09:07:18.691Z,62.61
2023-10-20T09:08:18.715Z,57.73
2023-10-20T09:09:18.691Z,60.74
2023-10-20T09:10:18.711Z,58.61
2023-10-20T09:11:18.688Z,60.89
2023-10-20T09:12:18.659Z,57.99
2023-10-20T09:13:18.654Z,55.66
2023-10-20T09:14:18.676Z,56.89
2023-10-20T09:15:18.656Z,54.63
2023-10-20T09:16:18.773Z,58.06
2023-10-20T09:17:18.643Z,64.06
2023-10-20T09:18:18.710Z,56.47
2023-10-20T09:19:18.622Z,57.42
2023-10-20T09:20:18.648Z,58.35
2023-10-20T09:21:18.610Z,63.50
2023-10-20T09:22:18.578Z,59.71
2023-10-20T09:23:18.603Z,58.13
2023-10-20T09:24:18.634Z,61.36
2023-10-20T09:25:18.698Z,57.33
2023-10-20T09:26:19.614Z,57.92
2023-10-20T09:27:18.544Z,60.90
2023-10-20T09:28:18.553Z,60.88
2023-10-20T09:29:18.628Z,59.41
2023-10-20T09:30:18.519Z,58.92
2023-10-20T09:31:18.521Z,57.62
2023-10-20T09:32:18.524Z,60.67
2023-10-20T09:33:18.564Z,59.93
2023-10-20T09:34:18.518Z,57.53
2023-10-20T09:35:18.512Z,55.70
2023-10-20T09:36:18.489Z,59.32
2023-10-20T09:37:18.478Z,54.24
2023-10-20T09:38:18.543Z,58.63
2023-10-20T09:39:18.477Z,59.92
2023-10-20T09:40:18.444Z,60.70
2023-10-20T09:41:18.454Z,55.65
2023-10-20T09:42:18.431Z,53.89
2023-10-20T09:43:25.546Z,54.51
2023-10-20T09:44:20.463Z,60.54
2023-10-20T09:45:18.426Z,61.21
2023-10-20T09:46:18.440Z,58.39
2023-10-20T09:47:18.501Z,66.05
2023-10-20T09:48:18.508Z,57.54
2023-10-20T09:49:18.379Z,57.41
2023-10-20T09:50:18.400Z,63.56
2023-10-20T09:51:18.366Z,56.68
2023-10-20T09:52:18.355Z,56.06
2023-10-20T09:53:18.388Z,55.93
2023-10-20T09:54:18.332Z,54.35
2023-10-20T09:55:18.330Z,57.84
2023-10-20T09:56:18.372Z,59.48
2023-10-20T09:57:18.343Z,55.88
2023-10-20T09:58:18.334Z,56.50
2023-10-20T09:59:18.309Z,53.97
2023-10-20T10:00:18.314Z,57.06
2023-10-20T10:01:18.304Z,59.89
2023-10-20T10:02:18.406Z,58.22
2023-10-20T10:03:18.384Z,59.23
2023-10-20T10:04:18.247Z,57.16
2023-10-20T10:05:18.282Z,53.54
2023-10-20T10:06:18.241Z,56.19
2023-10-20T10:07:18.246Z,58.28
2023-10-20T10:08:18.226Z,58.69
2023-10-20T10:09:18.219Z,55.57
2023-10-20T10:10:18.203Z,57.47
2023-10-20T10:11:18.254Z,64.01
2023-10-20T10:12:18.220Z,59.19
2023-10-20T10:13:18.177Z,62.25
2023-10-20T10:14:18.214Z,62.72
2023-10-20T10:15:18.173Z,62.30
2023-10-20T10:16:18.203Z,60.49
2023-10-20T10:17:18.186Z,60.20
2023-10-20T10:18:18.210Z,63.68
2023-10-20T10:19:18.158Z,60.27
2023-10-20T10:20:18.176Z,64.59
2023-10-20T10:21:18.154Z,60.48
2023-10-20T10:22:18.120Z,54.98
2023-10-20T10:23:18.148Z,56.02
2023-10-20T10:24:18.139Z,60.20
2023-10-20T10:25:18.102Z,57.86
2023-10-20T10:26:18.229Z,61.16
2023-10-20T10:27:18.193Z,60.55
2023-10-20T10:28:18.076Z,50.46
2023-10-20T10:29:18.074Z,62.46
2023-10-20T10:30:18.833Z,65.26
2023-10-20T10:31:18.831Z,57.38
2023-10-20T10:32:20.607Z,61.73
2023-10-20T10:33:20.668Z,59.70
2023-10-20T10:34:18.091Z,56.17
2023-10-20T10:35:18.172Z,65.55
2023-10-20T10:36:18.008Z,59.14
2023-10-20T10:37:18.004Z,56.54
2023-10-20T10:38:18.016Z,57.72
2023-10-20T10:39:17.982Z,55.92
2023-10-20T10:40:18.008Z,55.03
2023-10-20T10:41:18.098Z,60.95
2023-10-20T10:42:17.959Z,59.33
2023-10-20T10:43:17.988Z,62.14
2023-10-20T10:44:17.996Z,61.76
2023-10-20T10:45:17.972Z,53.34
2023-10-20T10:46:17.977Z,52.60
2023-10-20T10:47:17.972Z,57.62
2023-10-20T10:48:17.967Z,57.93
2023-10-20T10:49:17.935Z,61.09
2023-10-20T10:50:17.976Z,58.26
2023-10-20T10:51:17.943Z,53.80
2023-10-20T10:52:17.920Z,63.44
2023-10-20T10:53:17.920Z,58.60
2023-10-20T10:54:17.929Z,59.51
2023-10-20T10:55:52.137Z,60.75
2023-10-20T10:56:17.876Z,56.77
2023-10-20T10:57:17.835Z,60.78
2023-10-20T10:58:18.858Z,58.05
2023-10-20T10:59:17.876Z,53.49
2023-10-20T11:00:18.823Z,58.71
2023-10-20T11:01:17.860Z,57.18
2023-10-20T11:02:17.809Z,58.79
2023-10-20T11:03:17.990Z,60.36
2023-10-20T11:04:17.838Z,63.75
2023-10-20T11:05:17.813Z,57.61
2023-10-20T11:06:17.784Z,57.75
2023-10-20T11:07:17.767Z,54.96
2023-10-20T11:08:18.617Z,60.05
2023-10-20T11:09:17.927Z,60.42
2023-10-20T11:10:17.740Z,59.83
2023-10-20T11:11:17.801Z,56.24
2023-10-20T11:12:18.948Z,68.71
2023-10-20T11:13:21.873Z,59.60
2023-10-20T11:14:22.144Z,63.17
2023-10-20T11:15:17.724Z,58.75
2023-10-20T11:16:17.724Z,60.31
2023-10-20T11:17:17.748Z,60.86
2023-10-20T11:18:17.769Z,61.81
2023-10-20T11:19:17.678Z,57.97
2023-10-20T11:20:17.730Z,61.71
2023-10-20T11:21:17.673Z,67.53
2023-10-20T11:22:17.774Z,58.91
2023-10-20T11:23:17.664Z,56.21
2023-10-20T11:24:17.625Z,54.69
2023-10-20T11:25:17.621Z,56.63
2023-10-20T11:26:17.642Z,61.04
2023-10-20T11:27:17.632Z,61.42
2023-10-20T11:28:17.621Z,58.21
2023-10-20T11:29:17.610Z,60.39
2023-10-20T11:30:17.608Z,65.82
2023-10-20T11:31:17.636Z,55.89
2023-10-20T11:32:17.631Z,59.48
2023-10-20T11:33:17.688Z,56.93
2023-10-20T11:34:17.551Z,56.68
2023-10-20T11:35:17.567Z,56.45
2023-10-20T11:36:17.575Z,58.30
2023-10-20T11:37:17.538Z,59.03
2023-10-20T11:38:17.791Z,60.67
2023-10-20T11:39:17.516Z,63.47
2023-10-20T11:40:17.539Z,60.02
2023-10-20T11:41:17.543Z,57.57
2023-10-20T11:42:17.509Z,58.33
2023-10-20T11:43:17.521Z,53.09
2023-10-20T11:44:17.513Z,58.07
2023-10-20T11:45:17.496Z,61.98
2023-10-20T11:46:17.496Z,48.48
2023-10-20T11:47:17.478Z,56.70
2023-10-20T11:48:17.499Z,60.62
2023-10-20T11:49:17.442Z,54.69
2023-10-20T11:50:17.482Z,56.17
2023-10-20T11:51:17.435Z,55.32
2023-10-20T11:52:17.416Z,59.95
2023-10-20T11:53:17.461Z,66.32
2023-10-20T11:54:17.500Z,57.37
2023-10-20T11:55:17.426Z,59.85
2023-10-20T11:56:17.529Z,61.18
2023-10-20T11:57:17.392Z,57.41
2023-10-20T11:58:17.384Z,59.73
2023-10-20T11:59:17.465Z,57.68
2023-10-20T12:00:17.362Z,52.74
2023-10-20T12:01:17.383Z,54.90
2023-10-20T12:02:17.369Z,57.12
2023-10-20T12:03:17.411Z,54.15
2023-10-20T12:04:17.416Z,54.19
2023-10-20T12:05:17.364Z,53.06
2023-10-20T12:06:17.316Z,53.96
2023-10-20T12:07:17.318Z,57.87
2023-10-20T12:08:17.345Z,64.55
2023-10-20T12:09:17.318Z,53.73
2023-10-20T12:10:17.290Z,55.72
2023-10-20T12:11:17.315Z,61.71
2023-10-20T12:12:17.280Z,60.59
2023-10-20T12:13:17.262Z,58.75
2023-10-20T12:14:17.320Z,57.83
2023-10-20T12:15:17.301Z,63.94
2023-10-20T12:16:17.253Z,55.53
2023-10-20T12:17:17.321Z,60.47
2023-10-20T12:18:17.345Z,60.63
2023-10-20T12:19:17.244Z,56.80
2023-10-20T12:20:17.249Z,58.26
2023-10-20T12:21:17.229Z,53.31
2023-10-20T12:22:17.201Z,51.67
2023-10-20T12:23:17.234Z,59.74
2023-10-20T12:24:17.211Z,56.36
2023-10-20T12:25:17.185Z,54.01
2023-10-20T12:26:17.181Z,58.27
2023-10-20T12:27:17.169Z,62.32
2023-10-20T12:28:17.183Z,54.91
2023-10-20T12:29:17.249Z,53.88
2023-10-20T12:30:17.135Z,56.11
2023-10-20T12:31:17.184Z,52.16
2023-10-20T12:32:17.199Z,53.35
2023-10-20T12:33:17.271Z,49.61
2023-10-20T12:34:17.106Z,51.98
2023-10-20T12:35:17.187Z,56.18
2023-10-20T12:36:17.101Z,57.51
2023-10-20T12:37:17.098Z,57.21
2023-10-20T12:38:17.243Z,61.86
2023-10-20T12:39:17.077Z,51.40
2023-10-20T12:40:17.071Z,57.93
2023-10-20T12:41:17.076Z,56.82
2023-10-20T12:42:17.076Z,55.70
2023-10-20T12:43:17.079Z,53.25
2023-10-20T12:44:17.031Z,51.18
2023-10-20T12:45:17.053Z,55.29
2023-10-20T12:46:17.089Z,59.06
2023-10-20T12:47:17.032Z,59.27
2023-10-20T12:48:17.089Z,52.16
2023-10-20T12:49:17.003Z,55.25
2023-10-20T12:50:16.992Z,53.46
2023-10-20T12:51:16.981Z,60.41
2023-10-20T12:52:17.003Z,55.65